createdAt,value
2023-03-24T00:01:36.072Z,99950.81
2023-03-24T00:05:04.838Z,99957.69
2023-03-24T00:08:34.470Z,99964.34
2023-03-24T00:12:03.852Z,99966.38
2023-03-24T00:15:32.487Z,99937.66
2023-03-24T00:19:01.363Z,99965.97
2023-03-24T00:22:30.152Z,99961.75
2023-03-24T00:25:58.907Z,99936.00
2023-03-24T00:29:27.569Z,99973.56
2023-03-24T00:32:56.251Z,99963.47
2023-03-24T04:34:47.737Z,100341.78
2023-03-24T04:37:28.110Z,100336.03
2023-03-24T04:40:02.185Z,100327.25
2023-03-24T04:42:37.997Z,100314.44
2023-03-24T04:45:08.637Z,100309.69
2023-03-24T04:48:00.280Z,100301.81
2023-03-24T04:50:44.582Z,100301.09
2023-03-24T04:53:14.197Z,100307.59
2023-03-24T04:55:52.794Z,100296.31
2023-03-24T04:58:28.885Z,100290.09
2023-03-24T05:01:00.138Z,100292.31
2023-03-24T05:03:29.870Z,100292.31
2023-03-24T05:06:00.878Z,100301.09
2023-03-24T05:08:30.743Z,100311.19
2023-03-24T05:11:00.525Z,100323.66
2023-03-24T05:13:39.225Z,100309.94
2023-03-24T05:16:09.417Z,100313.06
2023-03-24T05:18:39.034Z,100312.97
2023-03-24T05:21:09.211Z,100311.88
2023-03-24T05:23:38.943Z,100307.00
2023-03-24T05:26:08.995Z,100312.84
2023-03-24T05:28:38.656Z,100313.13
2023-03-24T05:31:08.505Z,100316.66
2023-03-24T05:33:38.203Z,100309.03
2023-03-24T05:36:08.138Z,100286.56
2023-03-24T05:38:38.006Z,100289.25
2023-03-24T05:41:07.974Z,100290.09
2023-03-24T05:43:37.683Z,100279.34
2023-03-24T05:46:08.450Z,100285.16
2023-03-24T05:48:38.066Z,100274.44
2023-03-24T05:51:07.876Z,100269.25
2023-03-24T05:53:37.539Z,100271.75
2023-03-24T05:56:07.579Z,100266.38
2023-03-24T05:58:40.738Z,100264.72
2023-03-24T06:01:11.943Z,100269.06
2023-03-24T06:03:42.033Z,100269.06
2023-03-24T06:06:16.169Z,100262.84
2023-03-24T06:08:49.453Z,100269.91
2023-03-24T06:11:19.075Z,100274.44
2023-03-24T06:13:48.706Z,100275.28
2023-03-24T06:16:20.327Z,100268.91
2023-03-24T06:18:54.006Z,100262.84
2023-03-24T06:21:23.751Z,100257.50
2023-03-24T06:23:53.792Z,100269.44
2023-03-24T06:26:23.464Z,100265.53
2023-03-24T06:28:56.091Z,100266.56
2023-03-24T06:31:25.768Z,100273.16
2023-03-24T06:33:55.527Z,100267.78
2023-03-24T06:36:25.209Z,100264.63
2023-03-24T06:38:55.084Z,100252.88
2023-03-24T06:41:25.256Z,100251.19
2023-03-24T06:43:54.890Z,100260.91
2023-03-24T06:46:24.606Z,100260.09
2023-03-24T06:48:54.359Z,100262.78
2023-03-24T06:51:24.040Z,100267.31
2023-03-24T06:53:53.744Z,100266.28
2023-03-24T06:56:23.467Z,100259.06
2023-03-24T06:58:53.819Z,100266.28
2023-03-24T07:01:23.964Z,100266.28
2023-03-24T07:03:53.762Z,100266.28
2023-03-24T07:06:24.460Z,100271.84
2023-03-24T07:08:54.149Z,100273.50
2023-03-24T07:11:23.833Z,100270.00
2023-03-24T07:13:53.513Z,100279.91
2023-03-24T07:16:23.237Z,100282.75
2023-03-24T07:18:53.104Z,100287.28
2023-03-24T07:21:22.941Z,100293.47
2023-03-24T07:23:52.641Z,100290.78
2023-03-24T07:26:22.244Z,100295.16
2023-03-24T07:28:52.383Z,100301.53
2023-03-24T07:31:24.328Z,100303.38
2023-03-24T07:33:54.016Z,100305.09
2023-03-24T07:36:23.695Z,100302.41
2023-03-24T07:38:53.368Z,100299.03
2023-03-24T07:41:23.005Z,100302.41
2023-03-24T07:43:53.400Z,100313.13
2023-03-24T07:46:23.419Z,100316.66
2023-03-24T07:48:53.738Z,100322.56
2023-03-24T07:51:23.590Z,100309.13
2023-03-24T07:53:53.360Z,100311.63
2023-03-24T07:56:23.091Z,100302.94
2023-03-24T07:58:53.153Z,100313.69
2023-03-24T08:01:22.797Z,100312.19
2023-03-24T08:03:58.649Z,100310.50
2023-03-24T08:06:28.470Z,100311.00
2023-03-24T08:08:58.106Z,100318.66
2023-03-24T08:11:27.939Z,100316.72
2023-03-24T08:13:57.691Z,100312.84
2023-03-24T08:16:27.498Z,100317.91
2023-03-24T08:18:59.767Z,100321.97
2023-03-24T08:21:29.394Z,100329.31
2023-03-24T08:23:59.087Z,100328.66
2023-03-24T08:26:36.617Z,100329.19
2023-03-24T08:29:06.316Z,100321.97
2023-03-24T08:31:36.810Z,100323.28
2023-03-24T08:34:06.655Z,100320.41
2023-03-24T08:36:36.417Z,100324.47
2023-03-24T08:39:09.288Z,100337.88
2023-03-24T08:41:39.031Z,100333.53
2023-03-24T08:44:09.107Z,100337.25
2023-03-24T08:46:38.795Z,100339.94
2023-03-24T08:49:08.414Z,100337.41
2023-03-24T08:51:38.594Z,100333.88
2023-03-24T08:54:09.351Z,100340.09
2023-03-24T08:56:38.969Z,100338.06
2023-03-24T08:59:08.832Z,100340.91
2023-03-24T09:01:38.516Z,100349.16
2023-03-24T09:04:08.148Z,100341.94
2023-03-24T09:06:38.282Z,100347.31
2023-03-24T09:09:09.063Z,100353.50
2023-03-24T09:11:38.824Z,100359.91
2023-03-24T09:14:08.499Z,100360.72
2023-03-24T09:16:38.189Z,100365.91
2023-03-24T09:19:08.932Z,100364.25
2023-03-24T09:21:39.918Z,100355.34
2023-03-24T09:24:09.774Z,100362.38
2023-03-24T09:26:39.394Z,100357.41
2023-03-24T09:29:09.055Z,100370.63
2023-03-24T09:31:38.792Z,100374.34
2023-03-24T09:34:08.522Z,100377.03
2023-03-24T09:36:38.157Z,100386.91
2023-03-24T09:39:07.768Z,100394.78
2023-03-24T09:41:40.536Z,100395.63
2023-03-24T09:44:28.170Z,100396.81
2023-03-24T09:47:03.662Z,100399.66
2023-03-24T09:49:35.187Z,100402.53
2023-03-24T09:52:09.349Z,100405.41
2023-03-24T09:54:51.015Z,100412.44
2023-03-24T09:57:31.698Z,100406.41
2023-03-24T10:00:01.414Z,100414.63
2023-03-24T10:02:32.543Z,100419.34
2023-03-24T10:05:02.362Z,100421.50
2023-03-24T10:07:46.349Z,100427.41
2023-03-24T10:10:29.241Z,100430.91
2023-03-24T10:13:03.025Z,100439.16
2023-03-24T10:16:07.093Z,100442.00
2023-03-24T10:19:08.962Z,100451.88
2023-03-24T10:21:40.071Z,100453.22
2023-03-24T10:24:09.846Z,100449.06
2023-03-24T10:26:46.152Z,100449.53
2023-03-24T10:29:37.911Z,100458.13
2023-03-24T10:32:24.510Z,100463.00
2023-03-24T10:34:58.191Z,100459.16
2023-03-24T10:37:29.051Z,100459.16
2023-03-24T10:39:58.812Z,100460.81
2023-03-24T10:42:30.275Z,100464.72
2023-03-24T10:45:00.123Z,100466.06
2023-03-24T10:47:32.548Z,100469.41
2023-03-24T10:50:14.235Z,100476.63
2023-03-24T10:52:47.034Z,100468.59
2023-03-24T10:55:21.773Z,100472.41
2023-03-24T10:57:53.042Z,100471.28
2023-03-24T11:00:28.200Z,100480.00
2023-03-24T11:03:14.264Z,100485.38
2023-03-24T11:05:43.413Z,100489.94
2023-03-24T11:08:34.254Z,100489.59
2023-03-24T11:11:04.278Z,100487.44
2023-03-24T11:13:35.231Z,100490.78
2023-03-24T11:16:11.647Z,100502.16
2023-03-24T11:18:44.025Z,100500.50
2023-03-24T11:21:13.669Z,100502.69
2023-03-24T11:23:47.184Z,100519.28
2023-03-24T11:26:22.834Z,100522.09
2023-03-24T11:28:55.639Z,100526.31
2023-03-24T11:31:35.487Z,100529.16
2023-03-24T11:34:12.263Z,100537.53
2023-03-24T11:36:57.648Z,100543.59
2023-03-24T11:39:28.759Z,100547.09
2023-03-24T11:42:19.885Z,100552.28
2023-03-24T11:44:53.605Z,100541.91
2023-03-24T11:47:35.379Z,100542.75
2023-03-24T11:50:14.158Z,100551.78
2023-03-24T11:52:51.255Z,100548.44
2023-03-24T11:55:26.058Z,100560.19
2023-03-24T11:57:59.220Z,100571.88
2023-03-24T12:00:57.393Z,100566.69
2023-03-24T12:03:50.014Z,100569.56
2023-03-24T12:06:42.834Z,100579.44
2023-03-24T12:09:41.074Z,100584.47
2023-03-24T12:12:26.143Z,100594.53
2023-03-24T12:15:29.237Z,100592.00
2023-03-24T12:18:12.344Z,100604.75
2023-03-24T12:21:23.144Z,100599.88
2023-03-24T12:24:00.153Z,100596.38
2023-03-24T12:26:30.863Z,100596.38
2023-03-24T12:29:18.922Z,100600.06
2023-03-24T12:32:10.159Z,100606.25
2023-03-24T12:34:44.013Z,100610.59
2023-03-24T12:37:32.507Z,100608.59
2023-03-24T12:40:21.249Z,100614.81
2023-03-24T12:42:50.984Z,100613.97
2023-03-24T12:45:27.765Z,100612.94
2023-03-24T12:48:18.702Z,100616.97
2023-03-24T12:51:14.156Z,100619.66
2023-03-24T12:54:12.192Z,100624.38
2023-03-24T12:57:09.371Z,100623.34
2023-03-24T12:59:49.271Z,100625.53
2023-03-24T13:02:35.825Z,100626.19
2023-03-24T13:05:11.790Z,100629.72
2023-03-24T13:07:45.471Z,100622.84
2023-03-24T13:10:28.480Z,100616.31
2023-03-24T13:13:04.351Z,100623.84
2023-03-24T13:15:37.734Z,100620.16
2023-03-24T13:18:13.320Z,100617.16
2023-03-24T13:20:42.272Z,100619.00
2023-03-24T13:23:39.428Z,100624.34
2023-03-24T13:26:20.814Z,100621.31
2023-03-24T13:29:05.554Z,100605.75
2023-03-24T13:31:55.184Z,100615.94
2023-03-24T13:34:35.307Z,100631.06
2023-03-24T13:37:14.034Z,100634.91
2023-03-24T13:39:45.277Z,100636.56
2023-03-24T13:43:07.014Z,100639.75
2023-03-24T13:45:44.495Z,100646.63
2023-03-24T13:48:14.140Z,100649.63
2023-03-24T13:50:57.140Z,100656.16
2023-03-24T13:53:46.074Z,100667.75
2023-03-24T13:56:22.729Z,100660.69
2023-03-24T13:59:21.306Z,100671.41
2023-03-24T14:02:19.952Z,100676.09
2023-03-24T14:05:09.092Z,100681.28
2023-03-24T14:07:41.775Z,100682.63
2023-03-24T14:10:17.981Z,100686.16
2023-03-24T14:13:03.493Z,100686.16
2023-03-24T14:15:51.010Z,100692.38
2023-03-24T14:18:27.152Z,100693.19
2023-03-24T14:20:59.571Z,100692.19
2023-03-24T14:23:47.289Z,100699.22
2023-03-24T14:26:30.395Z,100696.03
2023-03-24T14:29:00.101Z,100695.53
2023-03-24T14:31:33.137Z,100712.78
2023-03-24T14:34:08.163Z,100710.94
2023-03-24T14:36:42.778Z,100706.09
2023-03-24T14:39:36.693Z,100700.72
2023-03-24T14:42:33.663Z,100705.75
2023-03-24T14:45:04.693Z,100705.06
2023-03-24T14:47:39.582Z,100692.69
2023-03-24T14:50:35.541Z,100692.03
2023-03-24T14:53:05.535Z,100683.63
2023-03-24T14:55:35.180Z,100683.47
2023-03-24T14:58:17.594Z,100681.44
2023-03-24T15:01:03.844Z,100678.09
2023-03-24T15:03:39.509Z,100683.50
2023-03-24T15:06:18.723Z,100687.16
2023-03-24T15:08:55.672Z,100698.34
2023-03-24T15:11:33.157Z,100697.69
2023-03-24T15:14:03.910Z,100704.25
2023-03-24T15:16:37.976Z,100692.84
2023-03-24T15:19:13.564Z,100694.00
2023-03-24T15:21:55.145Z,100698.53
2023-03-24T15:24:24.708Z,100695.84
2023-03-24T15:27:09.654Z,100694.53
2023-03-24T15:29:40.884Z,100697.22
2023-03-24T15:32:20.196Z,100701.91
2023-03-24T15:35:00.895Z,100694.22
2023-03-24T15:37:41.091Z,100691.19
2023-03-24T15:40:31.935Z,100694.34
2023-03-24T15:43:03.265Z,100690.19
2023-03-24T15:45:43.683Z,100709.25
2023-03-24T15:48:20.593Z,100711.28
2023-03-24T15:51:03.402Z,100701.22
2023-03-24T15:53:35.973Z,100704.41
2023-03-24T15:56:16.490Z,100703.06
2023-03-24T15:59:06.037Z,100709.59
2023-03-24T16:01:37.770Z,100711.72
2023-03-24T16:04:21.947Z,100708.91
2023-03-24T16:06:54.180Z,100707.69
2023-03-24T16:09:28.753Z,100702.53
2023-03-24T16:11:58.427Z,100695.97
2023-03-24T16:14:28.846Z,100701.00
2023-03-24T16:17:00.193Z,100691.97
2023-03-24T16:19:30.172Z,100707.06
2023-03-24T16:21:59.967Z,100695.97
2023-03-24T16:24:29.675Z,100697.31
2023-03-24T16:26:59.298Z,100703.69
2023-03-24T16:29:28.925Z,100700.69
2023-03-24T16:32:00.242Z,100708.91
2023-03-24T16:34:29.908Z,100710.59
2023-03-24T16:36:59.516Z,100711.22
2023-03-24T16:39:30.212Z,100713.13
2023-03-24T16:42:00.093Z,100709.53
2023-03-24T16:44:29.789Z,100713.06
2023-03-24T16:47:02.508Z,100716.88
2023-03-24T16:49:32.351Z,100722.75
2023-03-24T16:52:02.069Z,100735.41
2023-03-24T16:54:31.736Z,100738.00
2023-03-24T16:57:01.561Z,100735.81
2023-03-24T16:59:31.290Z,100737.84
2023-03-24T17:02:07.225Z,100746.78
2023-03-24T17:04:36.841Z,100742.34
2023-03-24T17:07:06.504Z,100749.25
2023-03-24T17:09:36.840Z,100750.41
2023-03-24T17:12:07.040Z,100749.56
2023-03-24T17:14:36.914Z,100748.72
2023-03-24T17:17:08.762Z,100759.75
2023-03-24T17:19:39.793Z,100765.63
2023-03-24T17:22:09.513Z,100763.44
2023-03-24T17:24:41.172Z,100775.53
2023-03-24T17:27:18.270Z,100765.13
2023-03-24T17:29:48.064Z,100767.78
2023-03-24T17:32:19.303Z,100756.72
2023-03-24T17:34:50.228Z,100759.56
2023-03-24T17:37:19.921Z,100762.09
2023-03-24T17:39:49.574Z,100753.91
2023-03-24T17:42:19.285Z,100763.44
2023-03-24T17:44:48.917Z,100755.22
2023-03-24T17:47:18.691Z,100756.72
2023-03-24T17:49:48.944Z,100751.72
2023-03-24T17:52:18.628Z,100750.88
2023-03-24T17:54:48.265Z,100745.69
2023-03-24T17:57:18.070Z,100745.69
2023-03-24T17:59:47.871Z,100743.69
2023-03-24T18:02:19.306Z,100734.81
2023-03-24T18:04:49.043Z,100733.63
2023-03-24T18:07:19.134Z,100737.13
2023-03-24T18:09:48.855Z,100726.28
2023-03-24T18:12:18.572Z,100726.78
2023-03-24T18:14:48.308Z,100726.41
2023-03-24T18:17:17.992Z,100724.91
2023-03-24T18:19:47.900Z,100712.72
2023-03-24T18:22:17.536Z,100710.88
2023-03-24T18:24:47.195Z,100715.06
2023-03-24T18:27:16.790Z,100699.81
2023-03-24T18:29:46.405Z,100701.66
2023-03-24T18:32:16.266Z,100710.03
2023-03-24T18:34:46.161Z,100714.56
2023-03-24T18:37:16.985Z,100716.53
2023-03-24T18:39:49.469Z,100725.59
2023-03-24T18:42:19.062Z,100723.25
2023-03-24T18:44:48.672Z,100729.44
2023-03-24T18:47:19.202Z,100720.06
2023-03-24T18:49:48.831Z,100728.59
2023-03-24T18:52:19.730Z,100728.59
2023-03-24T18:54:50.619Z,100725.59
2023-03-24T18:57:21.397Z,100724.09
2023-03-24T18:59:51.045Z,100717.88
2023-03-24T19:02:20.836Z,100710.16
2023-03-24T19:04:51.249Z,100715.00
2023-03-24T19:07:26.065Z,100721.53
2023-03-24T19:09:56.837Z,100717.84
2023-03-24T19:12:26.438Z,100713.34
2023-03-24T19:14:57.668Z,100726.41
2023-03-24T19:17:28.868Z,100721.38
2023-03-24T19:19:59.657Z,100717.34
2023-03-24T19:22:29.329Z,100711.84
2023-03-24T19:24:59.039Z,100714.50
2023-03-24T19:27:28.879Z,100710.00
2023-03-24T19:29:58.690Z,100711.97
2023-03-24T19:32:28.353Z,100702.28
2023-03-24T19:34:58.591Z,100701.75
2023-03-24T19:37:29.210Z,100704.78
2023-03-24T19:39:58.898Z,100699.75
2023-03-24T19:42:32.704Z,100700.25
2023-03-24T19:45:03.085Z,100698.94
2023-03-24T19:47:32.856Z,100700.59
2023-03-24T19:50:03.377Z,100690.72
2023-03-24T19:52:33.144Z,100702.44
2023-03-24T19:55:02.893Z,100699.75
2023-03-24T19:57:33.388Z,100696.56
2023-03-24T20:00:03.376Z,100699.06
2023-03-24T20:02:33.113Z,100699.19
2023-03-24T20:05:02.810Z,100705.38
2023-03-24T20:07:32.472Z,100703.88
2023-03-24T20:10:02.225Z,100701.38
2023-03-24T20:12:32.346Z,100707.22
2023-03-24T20:15:02.145Z,100704.53
2023-03-24T20:17:37.986Z,100707.69
2023-03-24T20:20:14.483Z,100706.50
2023-03-24T20:23:02.465Z,100695.31
2023-03-24T20:25:32.424Z,100690.94
2023-03-24T20:28:02.751Z,100703.34
2023-03-24T20:30:34.121Z,100704.84
2023-03-24T20:33:04.038Z,100703.00
2023-03-24T20:35:35.182Z,100710.84
2023-03-24T20:38:06.168Z,100709.53
2023-03-24T20:40:35.832Z,100712.22
2023-03-24T20:43:05.599Z,100708.19
2023-03-24T20:45:35.644Z,100709.38
2023-03-24T20:48:05.352Z,100703.00
2023-03-24T20:50:35.032Z,100703.31
2023-03-24T20:53:04.668Z,100704.97
2023-03-24T20:55:34.298Z,100698.47
2023-03-24T20:58:04.273Z,100701.66
2023-03-24T21:00:33.908Z,100694.97
2023-03-24T21:03:03.712Z,100693.75
2023-03-24T21:05:33.435Z,100699.78
2023-03-24T21:08:03.006Z,100703.78
2023-03-24T21:10:32.942Z,100700.94
2023-03-24T21:13:02.571Z,100706.47
2023-03-24T21:15:32.650Z,100704.78
2023-03-24T21:18:02.487Z,100698.06
2023-03-24T21:20:32.305Z,100702.06
2023-03-24T21:23:05.904Z,100708.25
2023-03-24T21:25:35.866Z,100706.41
2023-03-24T21:28:05.713Z,100711.28
2023-03-24T21:30:35.395Z,100713.59
2023-03-24T21:33:05.051Z,100722.63
2023-03-24T21:35:34.805Z,100721.63
2023-03-24T21:38:07.022Z,100726.84
2023-03-24T21:40:37.237Z,100736.19
2023-03-24T21:43:07.325Z,100734.16
2023-03-24T21:45:40.183Z,100741.66
2023-03-24T21:48:10.079Z,100748.03
2023-03-24T21:50:40.438Z,100755.91
2023-03-24T21:53:16.323Z,100756.75
2023-03-24T21:56:05.885Z,100759.25
2023-03-24T21:58:36.339Z,100759.56
2023-03-24T22:01:06.133Z,100763.94
2023-03-24T22:03:35.971Z,100759.78
2023-03-24T22:06:06.762Z,100753.59
2023-03-24T22:08:36.374Z,100758.59
2023-03-24T22:11:06.107Z,100757.72
2023-03-24T22:13:36.081Z,100764.16
2023-03-24T22:16:06.331Z,100759.09
2023-03-24T22:18:36.427Z,100758.72
2023-03-24T22:21:08.410Z,100764.31
2023-03-24T22:23:40.876Z,100766.47
2023-03-24T22:26:18.269Z,100772.66
2023-03-24T22:28:47.981Z,100780.38
2023-03-24T22:31:18.398Z,100779.91
2023-03-24T22:33:49.532Z,100776.34
2023-03-24T22:36:19.229Z,100776.34
2023-03-24T22:38:48.975Z,100784.09
2023-03-24T22:41:18.632Z,100786.09
2023-03-24T22:43:48.276Z,100778.06
2023-03-24T22:46:17.920Z,100768.19
2023-03-24T22:48:48.036Z,100763.97
2023-03-24T22:51:20.690Z,100763.97
2023-03-24T22:53:50.441Z,100756.31
2023-03-24T22:56:20.199Z,100746.06
2023-03-24T22:58:50.010Z,100744.94
2023-03-24T23:01:19.810Z,100738.41
2023-03-24T23:03:49.649Z,100753.31
2023-03-24T23:06:19.254Z,100750.47
2023-03-24T23:08:50.933Z,100758.69
2023-03-24T23:11:20.567Z,100757.16
2023-03-24T23:13:53.816Z,100751.50
2023-03-24T23:16:23.452Z,100760.06
2023-03-24T23:18:53.516Z,100752.84
2023-03-24T23:21:23.206Z,100767.25
2023-03-24T23:23:53.263Z,100760.88
2023-03-24T23:26:26.445Z,100764.03
2023-03-24T23:28:56.513Z,100756.06
2023-03-24T23:31:28.504Z,100770.59
2023-03-24T23:33:59.160Z,100776.94
2023-03-24T23:36:29.675Z,100786.97
2023-03-24T23:38:59.393Z,100786.13
2023-03-24T23:41:29.068Z,100784.97
2023-03-24T23:43:58.709Z,100790.88
2023-03-24T23:46:28.370Z,100798.91
2023-03-24T23:48:58.087Z,100802.53
2023-03-24T23:51:27.832Z,100799.41
2023-03-24T23:53:57.514Z,100797.88
2023-03-24T23:56:27.175Z,100798.56
2023-03-24T23:58:57.271Z,100798.19
